Wallis, Texas
Current Conditions -  °F | °C
As of 4:15 PM on Friday 24 Oct 2014 (Local Time) from KELA Reporting Station
Clear Clear  
Wind Chill: 28°   Ceiling: Unl
Heat Index: 28°   Visibility: 10mi
Dew Point: 14°   Wind: 7mph
Humidity: 43%   Direction: 20°NNE
Pressure: 30.08"   Gusts: NA
Location:  29.63°N, 96.07°W
Report Text: KELA 242115Z AUTO 02006KT 10SM CLR 28/14 A3008 RMK AO2 T02770139
Loading
Personal Weather Stations






























Interactive Weather Map
Tropical Storm Tracking
New forecast layout! Learn more

10-Day Weather Forecast

Advertisements
Track Severe Weather on mobile